Weather reports worldwide

Advertisment
Kew Gardens, United Kingdom (99095): temperature & dewpoint: 03.04.2020 12:00:00 - 09.04.2020 12:00:00 (BST)Kew Gardens, United Kingdom (99095): temperature -20cm & temperature -100cm: 03.04.2020 12:00:00 - 09.04.2020 12:00:00 (BST)Kew Gardens, United Kingdom (99095): wind speed: 03.04.2020 12:00:00 - 09.04.2020 12:00:00 (BST)Kew Gardens, United Kingdom (99095): wind direction: 03.04.2020 12:00:00 - 09.04.2020 12:00:00 (BST)Kew Gardens, United Kingdom (99095): precipitation: 03.04.2020 12:00:00 - 09.04.2020 12:00:00 (BST)
Date & Time tt [°C] td [°C] tt -20cm [°C] tt -100cm [°C] ff [km/h] ff [kn] dd rr [mm]
09.04.2020 12:00:00 - - - - - - - -
09.04.2020 11:00:00 18,5 8,6 - - 11 6 E 0,0
09.04.2020 10:00:00 16,6 8,9 11,0 10,4 9 5 E 0,0
09.04.2020 09:00:00 14,3 8,9 - - 4 2 E 0,0
09.04.2020 08:00:00 10,5 8,5 - - 4 2 ENE 0,0
09.04.2020 07:00:00 7,3 6,9 - - 4 2 E 0,0
09.04.2020 06:00:00 7,5 7,1 - - 5 3 E 0,0
09.04.2020 05:00:00 7,0 6,7 - - 4 2 E 0,0
09.04.2020 04:00:00 6,8 6,1 - - 4 2 ESE 0,0
09.04.2020 03:00:00 7,5 6,6 - - 2 1 E 0,0
09.04.2020 02:00:00 8,4 7,2 - - 2 1 E 0,0
09.04.2020 01:00:00 8,9 7,2 - - 2 1 E 0,0
09.04.2020 00:00:00 9,9 7,3 - - 4 2 E 0,0
08.04.2020 23:00:00 11,8 7,4 - - 4 2 E 0,0
08.04.2020 22:00:00 13,6 7,7 - - 8 4 E 0,0
08.04.2020 21:00:00 14,3 7,7 - - 5 3 E 0,0
08.04.2020 20:00:00 16,0 7,9 - - 8 4 E 0,0
08.04.2020 19:00:00 18,3 8,5 - - 8 4 ESE 0,0
08.04.2020 18:00:00 20,0 8,9 - - 9 5 ESE 0,0
08.04.2020 17:00:00 20,2 9,2 - - 8 4 E 0,0
08.04.2020 16:00:00 20,2 7,7 - - 5 3 E 0,0
08.04.2020 15:00:00 21,2 10,1 - - 8 4 ESE 0,0
08.04.2020 14:00:00 19,9 9,1 - - 9 5 E 0,0
08.04.2020 13:00:00 19,3 9,3 - - 9 5 E 0,0
08.04.2020 12:00:00 19,3 8,2 - - 9 5 ESE 0,0
08.04.2020 11:00:00 17,3 7,5 - - 8 4 ENE 0,0
08.04.2020 10:00:00 14,6 6,5 10,7 10,0 8 4 ENE 0,0
08.04.2020 09:00:00 13,1 6,3 - - 5 3 ENE 0,0
08.04.2020 08:00:00 11,7 6,6 - - 5 3 ENE 0,0
08.04.2020 07:00:00 10,6 5,9 - - 4 2 NNE 0,0
08.04.2020 06:00:00 10,3 5,8 - - 2 1 ENE 0,0
08.04.2020 05:00:00 10,6 5,9 - - 4 2 ENE 0,0
08.04.2020 04:00:00 10,0 6,8 - - 4 2 N 0,0
08.04.2020 03:00:00 9,0 6,6 - - 2 1 E 0,0
08.04.2020 02:00:00 9,0 6,8 - - 0 0 N 0,0
08.04.2020 01:00:00 8,2 6,4 - - 4 2 NNE 0,0
08.04.2020 00:00:00 8,6 6,8 - - 2 1 ENE 0,0
07.04.2020 23:00:00 9,0 6,3 - - 4 2 E 0,0
07.04.2020 22:00:00 10,0 5,4 - - 4 2 E 0,0
07.04.2020 21:00:00 11,7 4,0 - - 4 2 ESE 0,0
07.04.2020 20:00:00 14,6 3,8 - - 4 2 SE 0,0
07.04.2020 19:00:00 16,6 4,9 - - 5 3 ESE 0,0
07.04.2020 18:00:00 18,0 5,9 - - 9 5 E 0,0
07.04.2020 17:00:00 18,7 7,0 - - 11 6 E 0,0
07.04.2020 16:00:00 19,2 5,8 - - 8 4 E 0,0
07.04.2020 15:00:00 19,2 6,2 - - 11 6 SE 0,0
07.04.2020 14:00:00 18,7 5,6 - - 9 5 ESE 0,0
07.04.2020 13:00:00 18,2 7,6 - - 11 6 E 0,0
07.04.2020 12:00:00 17,4 5,2 - - 9 5 E 0,0
07.04.2020 11:00:00 16,2 6,3 - - 9 5 ESE 0,0
07.04.2020 10:00:00 13,8 5,4 9,9 9,9 9 5 ESE 0,0
07.04.2020 09:00:00 9,6 7,4 - - 2 1 SE 0,2
07.04.2020 08:00:00 4,0 3,9 - - 0 0 N 0,0
07.04.2020 07:00:00 2,1 1,9 - - 0 0 N 0,0
07.04.2020 06:00:00 2,2 1,8 - - 0 0 N 0,0
07.04.2020 05:00:00 2,8 2,5 - - 4 2 W 0,0
07.04.2020 04:00:00 2,9 2,3 - - 2 1 WNW 0,0
07.04.2020 03:00:00 3,1 2,3 - - 0 0 N 0,0
07.04.2020 02:00:00 3,8 2,8 - - 2 1 W 0,0
07.04.2020 01:00:00 4,7 3,5 - - 2 1 WSW 0,0
07.04.2020 00:00:00 5,9 3,9 - - 4 2 W 0,0
06.04.2020 23:00:00 7,0 4,1 - - 2 1 W 0,0
06.04.2020 22:00:00 7,6 3,8 - - 4 2 WNW 0,0
06.04.2020 21:00:00 9,8 3,6 - - 5 3 WNW 0,0
06.04.2020 20:00:00 12,4 2,6 - - 4 2 W 0,0
06.04.2020 19:00:00 15,1 1,6 - - 13 7 WNW 0,0
06.04.2020 18:00:00 16,9 2,8 - - 16 9 W 0,0
06.04.2020 17:00:00 16,4 2,5 - - 15 8 W 0,0
06.04.2020 16:00:00 17,7 3,2 - - 13 7 W 0,0
06.04.2020 15:00:00 17,2 2,8 - - 9 5 WSW 0,0
06.04.2020 14:00:00 16,8 4,7 - - 9 5 W 0,0
06.04.2020 13:00:00 16,8 6,9 - - 11 6 W 0,0
06.04.2020 12:00:00 14,5 8,5 - - 9 5 W 0,0
06.04.2020 11:00:00 11,8 9,9 - - 8 4 WSW 0,0
06.04.2020 10:00:00 11,0 9,2 10,0 9,7 5 3 W 0,2
06.04.2020 09:00:00 12,9 10,7 - - 9 5 WSW 0,0
06.04.2020 08:00:00 12,4 11,0 - - 8 4 S 0,2
06.04.2020 07:00:00 12,4 9,5 - - 8 4 SSW 0,0
06.04.2020 06:00:00 13,4 8,0 - - 9 5 S 0,0
06.04.2020 05:00:00 13,1 7,6 - - 8 4 S 0,0
06.04.2020 04:00:00 13,4 6,9 - - 9 5 S 0,0
06.04.2020 03:00:00 13,3 6,4 - - 9 5 S 0,0
06.04.2020 02:00:00 14,2 5,5 - - 13 7 SSW 0,0
06.04.2020 01:00:00 13,7 4,2 - - 9 5 S 0,0
06.04.2020 00:00:00 14,1 3,1 - - 8 4 S 0,0
05.04.2020 23:00:00 15,1 3,2 - - 9 5 SSE 0,0
05.04.2020 22:00:00 15,2 3,4 - - 11 6 SSE 0,0
05.04.2020 21:00:00 15,9 3,6 - - 11 6 SSE 0,0
05.04.2020 20:00:00 16,3 3,5 - - 8 4 SE 0,0
05.04.2020 19:00:00 18,8 3,2 - - 13 7 SSE 0,0
05.04.2020 18:00:00 19,8 2,8 - - 15 8 SSE 0,0
05.04.2020 17:00:00 20,9 0,8 - - 18 10 SSE 0,0
05.04.2020 16:00:00 21,2 4,3 - - 13 7 S 0,0
05.04.2020 15:00:00 21,3 3,9 - - 16 9 S 0,0
05.04.2020 14:00:00 20,5 3,3 - - 15 8 SSE 0,0
05.04.2020 13:00:00 19,8 4,9 - - 18 10 SSE 0,0
05.04.2020 12:00:00 18,4 4,6 - - 16 9 SE 0,0
05.04.2020 11:00:00 16,7 3,7 - - 15 8 SSE 0,0
05.04.2020 10:00:00 14,5 4,6 8,7 9,5 13 7 ESE 0,0
05.04.2020 09:00:00 12,6 3,7 - - 11 6 SE 0,0
05.04.2020 08:00:00 8,3 3,3 - - 11 6 ESE 0,0
05.04.2020 07:00:00 6,1 2,3 - - 8 4 E 0,0
05.04.2020 06:00:00 6,1 2,3 - - 8 4 ESE 0,0
05.04.2020 05:00:00 6,4 2,5 - - 8 4 ESE 0,0
05.04.2020 04:00:00 6,5 2,8 - - 8 4 E 0,0
05.04.2020 03:00:00 6,1 2,7 - - 5 3 E 0,0
05.04.2020 02:00:00 7,4 3,1 - - 8 4 E 0,0
05.04.2020 01:00:00 7,6 3,0 - - 5 3 ESE 0,0
05.04.2020 00:00:00 8,2 2,8 - - 8 4 ESE 0,0
04.04.2020 23:00:00 9,0 2,8 - - 8 4 ESE 0,0
04.04.2020 22:00:00 8,9 1,4 - - 8 4 ESE 0,0
04.04.2020 21:00:00 9,4 -0,4 - - 5 3 ESE 0,0
04.04.2020 20:00:00 11,2 -1,4 - - 8 4 SSE 0,0
04.04.2020 19:00:00 13,9 -1,0 - - 11 6 SSE 0,0
04.04.2020 18:00:00 15,6 1,2 - - 9 5 SSE 0,0
04.04.2020 17:00:00 16,3 0,6 - - 11 6 SSE 0,0
04.04.2020 16:00:00 16,3 1,6 - - 11 6 SE 0,0
04.04.2020 15:00:00 16,5 4,0 - - 11 6 SSW 0,0
04.04.2020 14:00:00 15,9 4,4 - - 11 6 S 0,0
04.04.2020 13:00:00 14,9 4,9 - - 11 6 S 0,0
04.04.2020 12:00:00 14,1 6,0 - - 9 5 SSW 0,0
04.04.2020 11:00:00 11,8 7,6 - - 9 5 S 0,0
04.04.2020 10:00:00 8,6 7,0 8,2 9,2 9 5 S 0,0
04.04.2020 09:00:00 6,0 6,0 - - 2 1 S 0,0
04.04.2020 08:00:00 2,5 2,4 - - 4 2 S 0,0
04.04.2020 07:00:00 0,5 0,2 - - 2 1 WSW 0,0
04.04.2020 06:00:00 0,5 0,0 - - 2 1 ESE 0,0
04.04.2020 05:00:00 1,2 0,7 - - 2 1 S 0,0
04.04.2020 04:00:00 1,3 0,6 - - 0 0 N 0,0
04.04.2020 03:00:00 2,1 1,3 - - 0 0 N 0,0
04.04.2020 02:00:00 2,8 1,6 - - 4 2 WSW 0,0
04.04.2020 01:00:00 2,4 1,3 - - 0 0 N 0,0
04.04.2020 00:00:00 2,5 0,9 - - 0 0 N 0,0
03.04.2020 23:00:00 3,6 1,1 - - 0 0 N 0,0
03.04.2020 22:00:00 5,0 1,8 - - 2 1 SW 0,0
03.04.2020 21:00:00 6,7 1,4 - - 4 2 SW 0,0
03.04.2020 20:00:00 11,4 1,7 - - 4 2 NW 0,0
03.04.2020 19:00:00 12,1 1,0 - - 8 4 W 0,0
03.04.2020 18:00:00 12,8 0,6 - - 5 3 W 0,0
03.04.2020 17:00:00 13,2 1,5 - - 9 5 WSW 0,0
03.04.2020 16:00:00 12,4 2,1 - - 9 5 W 0,0
03.04.2020 15:00:00 12,6 2,3 - - 8 4 W 0,0
03.04.2020 14:00:00 12,2 2,4 - - 9 5 W 0,0
03.04.2020 13:00:00 11,1 3,3 - - 8 4 WSW 0,0
03.04.2020 12:00:00 9,9 2,2 - - 5 3 WSW 0,0

tt = temperature
td = dewpoint
tt -20cm = temperature -20cm
tt -100cm = temperature -100cm
ff = wind speed
dd = wind direction
rr = precipitation

Next stations